createdAt,value
2017-10-02T00:01:42.622Z,15.40
2017-10-02T00:04:10.943Z,15.50
2017-10-02T00:06:39.222Z,15.40
2017-10-02T00:09:07.493Z,15.30
2017-10-02T00:11:35.795Z,15.20
2017-10-02T00:14:04.100Z,15.00
2017-10-02T00:16:32.391Z,15.00
2017-10-02T00:19:00.732Z,14.70
2017-10-02T00:21:29.051Z,14.60
2017-10-02T00:23:57.294Z,14.60
2017-10-02T00:26:25.581Z,14.80
2017-10-02T00:28:53.911Z,15.00
2017-10-02T00:31:22.233Z,15.00
2017-10-02T00:33:50.517Z,15.00
2017-10-02T00:36:18.777Z,14.80
2017-10-02T00:38:48.030Z,14.90
2017-10-02T00:41:16.365Z,15.10
2017-10-02T00:43:44.652Z,15.20
2017-10-02T00:46:12.921Z,15.00
2017-10-02T00:48:41.191Z,15.00
2017-10-02T00:51:09.502Z,14.90
2017-10-02T00:53:37.855Z,15.10
2017-10-02T00:56:06.119Z,15.20
2017-10-02T00:58:34.596Z,15.20
2017-10-02T01:01:02.889Z,15.40
2017-10-02T01:03:31.193Z,15.30
2017-10-02T01:05:59.481Z,15.30
2017-10-02T01:08:28.408Z,15.20
2017-10-02T01:10:56.679Z,15.00
2017-10-02T01:13:24.952Z,14.80
2017-10-02T01:15:53.291Z,14.70
2017-10-02T01:18:21.555Z,14.70
2017-10-02T01:20:49.906Z,14.50
2017-10-02T01:23:18.241Z,14.60
2017-10-02T01:25:46.549Z,14.70
2017-10-02T01:28:14.824Z,14.80
2017-10-02T01:30:43.169Z,14.50
2017-10-02T01:33:11.424Z,14.50
2017-10-02T01:35:39.685Z,14.40
2017-10-02T01:38:08.267Z,14.20
2017-10-02T01:40:36.554Z,14.20
2017-10-02T01:43:04.822Z,14.50
2017-10-02T01:45:33.143Z,14.60
2017-10-02T01:48:01.800Z,14.20
2017-10-02T01:50:30.086Z,14.20
2017-10-02T01:52:58.350Z,14.20
2017-10-02T01:55:26.626Z,14.10
2017-10-02T01:57:54.955Z,14.10
2017-10-02T02:00:23.228Z,14.00
2017-10-02T02:02:51.489Z,13.80
2017-10-02T02:05:20.186Z,13.70
2017-10-02T02:07:48.508Z,13.70
2017-10-02T02:10:16.761Z,13.80
2017-10-02T02:12:45.047Z,13.90
2017-10-02T02:15:13.353Z,14.20
2017-10-02T02:17:42.037Z,14.30
2017-10-02T02:20:10.584Z,14.30
2017-10-02T02:22:38.837Z,14.20
2017-10-02T02:25:07.337Z,14.10
2017-10-02T02:27:35.654Z,14.00
2017-10-02T02:30:03.930Z,14.00
2017-10-02T02:32:32.182Z,13.90
2017-10-02T02:35:00.477Z,13.80
2017-10-02T02:37:28.746Z,14.00
2017-10-02T02:39:57.032Z,14.00
2017-10-02T02:42:25.278Z,14.10
2017-10-02T02:44:53.543Z,14.30
2017-10-02T02:47:21.814Z,14.30
2017-10-02T02:49:50.329Z,14.20
2017-10-02T02:52:18.590Z,14.30
2017-10-02T02:54:48.969Z,14.20
2017-10-02T02:57:17.297Z,14.10
2017-10-02T02:59:45.802Z,14.30
2017-10-02T03:02:14.312Z,14.40
2017-10-02T03:04:43.019Z,14.20
2017-10-02T03:07:11.301Z,14.20
2017-10-02T03:09:39.598Z,14.20
2017-10-02T03:12:07.865Z,14.00
2017-10-02T03:14:36.131Z,14.10
2017-10-02T03:17:04.493Z,14.00
2017-10-02T03:19:32.768Z,13.90
2017-10-02T03:22:01.086Z,13.90
2017-10-02T03:24:29.645Z,14.10
2017-10-02T03:26:57.904Z,14.30
2017-10-02T03:29:26.165Z,14.50
2017-10-02T03:31:54.482Z,14.50
2017-10-02T03:34:22.748Z,14.40
2017-10-02T03:36:51.060Z,14.30
2017-10-02T03:39:19.358Z,14.10
2017-10-02T03:41:48.039Z,13.90
2017-10-02T03:44:16.375Z,13.90
2017-10-02T03:46:44.640Z,14.00
2017-10-02T03:49:12.904Z,14.00
2017-10-02T03:51:41.205Z,14.00
2017-10-02T03:54:09.491Z,13.90
2017-10-02T03:56:37.768Z,14.00
2017-10-02T03:59:06.070Z,13.80
2017-10-02T04:01:34.376Z,13.70
2017-10-02T04:04:03.051Z,13.70
2017-10-02T04:06:31.776Z,13.80
2017-10-02T04:09:00.049Z,13.80
2017-10-02T04:11:28.355Z,13.80
2017-10-02T04:13:56.612Z,13.80
2017-10-02T04:16:24.888Z,13.80
2017-10-02T04:18:53.191Z,13.70
2017-10-02T04:21:21.703Z,13.50
2017-10-02T04:23:49.950Z,13.30
2017-10-02T04:26:18.255Z,13.40
2017-10-02T04:28:46.817Z,13.50
2017-10-02T04:31:15.103Z,13.60
2017-10-02T04:33:43.438Z,13.60
2017-10-02T04:36:11.710Z,13.80
2017-10-02T04:38:40.029Z,14.20
2017-10-02T04:41:08.387Z,14.50
2017-10-02T04:43:36.644Z,14.40
2017-10-02T04:46:04.961Z,14.30
2017-10-02T04:48:33.252Z,14.40
2017-10-02T04:51:02.001Z,14.60
2017-10-02T04:53:30.311Z,14.60
2017-10-02T04:55:58.983Z,14.10
2017-10-02T04:58:27.263Z,14.10
2017-10-02T05:00:55.608Z,13.90
2017-10-02T05:03:24.386Z,13.50
2017-10-02T05:05:52.749Z,13.30
2017-10-02T05:08:21.040Z,13.40
2017-10-02T05:10:49.373Z,13.10
2017-10-02T05:13:17.649Z,13.00
2017-10-02T05:15:46.399Z,13.40
2017-10-02T05:18:14.671Z,13.30
2017-10-02T05:20:43.209Z,13.50
2017-10-02T05:23:11.457Z,13.50
2017-10-02T05:25:40.157Z,13.30
2017-10-02T05:28:08.573Z,13.30
2017-10-02T05:30:36.838Z,13.30
2017-10-02T05:33:05.159Z,13.30
2017-10-02T05:35:33.437Z,13.30
2017-10-02T05:38:01.795Z,13.40
2017-10-02T05:40:30.217Z,13.40
2017-10-02T05:42:58.766Z,13.30
2017-10-02T05:45:27.043Z,13.20
2017-10-02T05:47:55.384Z,13.40
2017-10-02T05:50:23.642Z,13.60
2017-10-02T05:52:51.962Z,13.70
2017-10-02T05:55:20.275Z,13.70
2017-10-02T05:57:48.539Z,13.60
2017-10-02T06:00:16.851Z,13.70
2017-10-02T06:02:45.332Z,13.80
2017-10-02T06:05:14.010Z,13.50
2017-10-02T06:07:42.380Z,13.60
2017-10-02T06:10:11.025Z,13.30
2017-10-02T06:12:39.304Z,13.30
2017-10-02T06:15:07.597Z,13.40
2017-10-02T06:17:35.914Z,13.30
2017-10-02T06:20:04.252Z,13.30
2017-10-02T06:22:32.743Z,13.40
2017-10-02T06:25:01.466Z,13.70
2017-10-02T06:27:29.753Z,13.70
2017-10-02T06:29:58.052Z,13.90
2017-10-02T06:32:26.593Z,14.10
2017-10-02T06:34:55.870Z,13.80
2017-10-02T06:37:24.428Z,14.00
2017-10-02T06:39:52.779Z,14.30
2017-10-02T06:42:21.328Z,14.40
2017-10-02T06:44:49.642Z,14.20
2017-10-02T06:47:17.980Z,14.20
2017-10-02T06:49:47.087Z,14.00
2017-10-02T06:52:15.860Z,14.00
2017-10-02T06:54:44.926Z,14.00
2017-10-02T06:57:13.479Z,14.00
2017-10-02T06:59:41.889Z,14.00
2017-10-02T07:02:10.195Z,14.10
2017-10-02T07:04:38.643Z,14.20
2017-10-02T07:07:07.161Z,14.50
2017-10-02T07:09:35.760Z,14.80
2017-10-02T07:12:04.265Z,15.00
2017-10-02T07:14:33.477Z,13.10
2017-10-02T07:17:01.748Z,13.10
2017-10-02T07:19:30.038Z,12.30
2017-10-02T07:21:58.319Z,12.10
2017-10-02T07:24:26.949Z,12.40
2017-10-02T07:26:55.251Z,12.70
2017-10-02T07:29:23.599Z,13.20
2017-10-02T07:31:51.894Z,13.80
2017-10-02T07:34:20.180Z,14.20
2017-10-02T07:36:48.457Z,14.30
2017-10-02T07:39:16.994Z,14.40
2017-10-02T07:41:45.266Z,14.40
2017-10-02T07:44:13.995Z,14.50
2017-10-02T07:46:42.355Z,14.50
2017-10-02T07:49:10.614Z,14.50
2017-10-02T07:51:38.928Z,14.60
2017-10-02T07:54:07.224Z,14.40
2017-10-02T07:56:35.931Z,14.40
2017-10-02T07:59:04.339Z,14.40
2017-10-02T08:01:33.025Z,14.80
2017-10-02T08:04:01.334Z,14.80
2017-10-02T08:06:29.791Z,15.20
2017-10-02T08:08:58.234Z,15.20
2017-10-02T08:11:26.489Z,15.00
2017-10-02T08:13:54.793Z,15.00
2017-10-02T08:16:23.077Z,15.10
2017-10-02T08:18:51.336Z,15.30
2017-10-02T08:21:19.637Z,15.60
2017-10-02T08:23:47.878Z,15.60
2017-10-02T08:26:16.154Z,15.70
2017-10-02T08:28:44.505Z,16.00
2017-10-02T08:31:12.759Z,15.90
2017-10-02T08:33:41.036Z,15.60
2017-10-02T08:36:09.412Z,15.80
2017-10-02T08:38:38.084Z,16.00
2017-10-02T08:41:06.706Z,16.40
2017-10-02T08:43:35.066Z,16.80
2017-10-02T08:46:03.393Z,16.80
2017-10-02T08:48:31.771Z,16.90
2017-10-02T08:51:00.039Z,17.10
2017-10-02T08:53:28.289Z,17.30
2017-10-02T08:55:56.894Z,17.20
2017-10-02T08:58:25.557Z,17.30
2017-10-02T09:00:53.795Z,16.90
2017-10-02T09:03:22.170Z,16.80
2017-10-02T09:05:50.447Z,16.80
2017-10-02T09:08:19.146Z,16.60
2017-10-02T09:10:47.478Z,16.60
2017-10-02T09:13:15.980Z,16.30
2017-10-02T09:15:45.123Z,16.20
2017-10-02T09:18:13.430Z,16.20
2017-10-02T09:20:41.684Z,16.10
2017-10-02T09:23:09.960Z,16.10
2017-10-02T09:25:38.254Z,16.30
2017-10-02T09:28:06.512Z,16.40
2017-10-02T09:30:36.762Z,16.60
2017-10-02T09:33:05.041Z,16.90
2017-10-02T09:35:33.645Z,17.20
2017-10-02T09:38:02.354Z,17.60
2017-10-02T09:40:30.626Z,17.60
2017-10-02T09:42:58.954Z,17.80
2017-10-02T09:45:27.227Z,17.90
2017-10-02T09:47:55.460Z,18.00
2017-10-02T09:50:23.776Z,17.80
2017-10-02T09:52:52.029Z,17.90
2017-10-02T09:55:20.385Z,18.00
2017-10-02T09:57:48.881Z,18.00
2017-10-02T10:00:17.158Z,18.00
2017-10-02T10:02:45.653Z,18.10
2017-10-02T10:05:14.217Z,18.10
2017-10-02T10:07:42.453Z,18.10
2017-10-02T10:10:10.751Z,18.00
2017-10-02T10:12:39.400Z,18.10
2017-10-02T10:15:07.677Z,18.10
2017-10-02T10:17:35.951Z,17.80
2017-10-02T10:20:04.220Z,17.90
2017-10-02T10:22:32.469Z,18.10
2017-10-02T10:25:00.809Z,18.20
2017-10-02T10:27:29.460Z,18.20
2017-10-02T10:29:57.768Z,18.20
2017-10-02T10:32:26.438Z,18.20
2017-10-02T10:34:55.146Z,18.00
2017-10-02T10:37:23.391Z,18.00
2017-10-02T10:39:51.930Z,18.00
2017-10-02T10:42:20.291Z,17.90
2017-10-02T10:44:48.551Z,18.00
2017-10-02T10:47:17.236Z,18.30
2017-10-02T10:49:45.498Z,18.30
2017-10-02T10:52:14.265Z,18.00
2017-10-02T10:54:42.528Z,18.00
2017-10-02T10:57:10.763Z,17.80
2017-10-02T10:59:39.485Z,17.80
2017-10-02T11:02:07.790Z,17.80
2017-10-02T11:04:36.098Z,17.80
2017-10-02T11:07:04.391Z,17.90
2017-10-02T11:09:32.782Z,18.00
2017-10-02T11:12:01.142Z,17.90
2017-10-02T11:14:29.688Z,17.80
2017-10-02T11:16:57.966Z,17.80
2017-10-02T11:19:26.643Z,17.70
2017-10-02T11:21:55.007Z,17.70
2017-10-02T11:24:23.283Z,17.60
2017-10-02T11:26:51.676Z,17.70
2017-10-02T11:29:20.199Z,17.70
2017-10-02T11:31:49.761Z,17.50
2017-10-02T11:34:18.063Z,17.50
2017-10-02T11:36:46.432Z,17.50
2017-10-02T11:39:15.103Z,17.60
2017-10-02T11:41:44.830Z,17.70
2017-10-02T11:44:13.245Z,17.80
2017-10-02T11:46:41.581Z,17.60
2017-10-02T11:49:10.001Z,17.60
2017-10-02T11:51:38.301Z,17.60
2017-10-02T11:54:06.680Z,17.40
2017-10-02T11:56:35.028Z,17.00
2017-10-02T11:59:03.312Z,16.50
2017-10-02T12:01:32.291Z,16.50
2017-10-02T12:04:01.652Z,16.40
2017-10-02T12:06:58.309Z,16.40
2017-10-02T12:09:28.758Z,16.10
2017-10-02T12:11:57.091Z,15.70
2017-10-02T12:14:26.413Z,15.60
2017-10-02T12:16:55.217Z,15.60
2017-10-02T12:19:23.908Z,15.20
2017-10-02T12:21:52.313Z,15.20
2017-10-02T12:24:20.636Z,14.90
2017-10-02T12:26:49.349Z,15.00
2017-10-02T12:29:17.796Z,15.10
2017-10-02T12:31:46.162Z,15.20
2017-10-02T12:34:15.289Z,15.20
2017-10-02T12:36:43.802Z,15.30
2017-10-02T12:39:12.136Z,15.30
2017-10-02T12:41:40.669Z,15.10
2017-10-02T12:44:09.322Z,14.90
2017-10-02T12:46:37.676Z,14.60
2017-10-02T12:49:06.363Z,14.70
2017-10-02T12:51:34.635Z,14.70
2017-10-02T12:54:02.968Z,14.70
2017-10-02T12:56:31.321Z,14.90
2017-10-02T12:58:59.621Z,14.80
2017-10-02T13:01:27.957Z,14.90
2017-10-02T13:03:56.345Z,15.10
2017-10-02T13:06:25.114Z,14.90
2017-10-02T13:08:53.951Z,14.90
2017-10-02T13:11:22.296Z,14.80
2017-10-02T13:13:50.560Z,14.90
2017-10-02T13:16:18.874Z,15.00
2017-10-02T13:18:48.816Z,15.10
2017-10-02T13:21:17.165Z,15.10
2017-10-02T13:23:45.435Z,14.90
2017-10-02T13:26:13.955Z,15.00
2017-10-02T13:28:42.219Z,15.20
2017-10-02T13:31:10.485Z,15.30
2017-10-02T13:33:38.831Z,15.10
2017-10-02T13:36:07.079Z,15.00
2017-10-02T13:38:35.326Z,15.10
2017-10-02T13:41:03.907Z,15.20
2017-10-02T13:43:32.164Z,15.50
2017-10-02T13:46:00.487Z,15.20
2017-10-02T13:48:29.192Z,13.70
2017-10-02T13:50:57.562Z,13.70
2017-10-02T13:53:25.825Z,13.80
2017-10-02T13:55:54.189Z,14.10
2017-10-02T13:58:22.612Z,14.50
2017-10-02T14:00:51.621Z,14.60
2017-10-02T14:03:20.397Z,14.70
2017-10-02T14:05:48.703Z,15.00
2017-10-02T14:08:16.982Z,15.10
2017-10-02T14:10:45.236Z,15.20
2017-10-02T14:13:13.535Z,15.30
2017-10-02T14:15:41.857Z,14.60
2017-10-02T14:18:10.406Z,14.60
2017-10-02T14:20:38.753Z,14.80
2017-10-02T14:23:07.007Z,15.00
2017-10-02T14:25:35.262Z,15.10
2017-10-02T14:28:03.503Z,15.20
2017-10-02T14:30:31.926Z,15.20
2017-10-02T14:33:00.372Z,15.00
2017-10-02T14:35:28.679Z,15.20
2017-10-02T14:37:56.948Z,15.20
2017-10-02T14:40:25.206Z,15.20
2017-10-02T14:42:53.924Z,15.30
2017-10-02T14:45:22.253Z,14.50
2017-10-02T14:47:50.531Z,14.50
2017-10-02T14:50:18.797Z,14.70
2017-10-02T14:52:47.256Z,14.70
2017-10-02T14:55:15.661Z,14.80
2017-10-02T14:57:44.201Z,14.70
2017-10-02T15:00:12.485Z,15.00
2017-10-02T15:02:40.766Z,15.00
2017-10-02T15:05:09.017Z,15.00
2017-10-02T15:07:37.502Z,15.10
2017-10-02T15:10:05.776Z,15.30
2017-10-02T15:12:34.016Z,15.30
2017-10-02T15:15:02.363Z,15.30
2017-10-02T15:17:30.997Z,15.10
2017-10-02T15:19:59.488Z,15.10
2017-10-02T15:22:27.792Z,15.50
2017-10-02T15:24:56.212Z,15.80
2017-10-02T15:27:24.478Z,16.00
2017-10-02T15:29:52.725Z,16.20
2017-10-02T15:32:21.021Z,16.10
2017-10-02T15:34:50.126Z,15.80
2017-10-02T15:37:18.545Z,15.80
2017-10-02T15:39:46.798Z,15.80
2017-10-02T15:42:15.309Z,15.90
2017-10-02T15:44:43.582Z,15.50
2017-10-02T15:47:12.837Z,15.30
2017-10-02T15:49:41.156Z,15.40
2017-10-02T15:52:09.380Z,15.40
2017-10-02T15:54:37.681Z,15.50
2017-10-02T15:57:06.017Z,15.30
2017-10-02T15:59:34.661Z,15.20
2017-10-02T16:02:02.983Z,15.20
2017-10-02T16:04:31.627Z,15.20
2017-10-02T16:07:00.114Z,15.20
2017-10-02T16:09:28.376Z,15.10
2017-10-02T16:11:56.742Z,15.00
2017-10-02T16:14:25.045Z,15.20
2017-10-02T16:16:53.956Z,15.30
2017-10-02T16:19:22.568Z,15.20
2017-10-02T16:21:50.871Z,15.40
2017-10-02T16:24:19.138Z,15.40
2017-10-02T16:26:47.690Z,15.50
2017-10-02T16:29:16.195Z,15.70
2017-10-02T16:31:44.426Z,15.70
2017-10-02T16:34:12.668Z,15.30
2017-10-02T16:36:41.379Z,15.50
2017-10-02T16:39:10.393Z,15.50
2017-10-02T16:41:38.738Z,15.50
2017-10-02T16:44:07.191Z,15.30
2017-10-02T16:46:35.476Z,15.30
2017-10-02T16:49:03.803Z,15.60
2017-10-02T16:51:32.062Z,15.60
2017-10-02T16:54:00.337Z,15.70
2017-10-02T16:56:28.657Z,15.80
2017-10-02T16:58:57.014Z,15.80
2017-10-02T17:01:25.776Z,16.10
2017-10-02T17:03:54.151Z,16.10
2017-10-02T17:06:22.539Z,16.00
2017-10-02T17:08:51.351Z,16.10
2017-10-02T17:11:19.932Z,16.30
2017-10-02T17:13:48.576Z,16.30
2017-10-02T17:16:16.852Z,16.30
2017-10-02T17:18:45.173Z,16.60
2017-10-02T17:21:13.823Z,16.90
2017-10-02T17:23:42.126Z,16.90
2017-10-02T17:26:10.391Z,17.00
2017-10-02T17:28:38.638Z,16.90
2017-10-02T17:31:07.016Z,16.80
2017-10-02T17:33:35.282Z,16.40
2017-10-02T17:36:03.542Z,14.90
2017-10-02T17:38:31.880Z,14.30
2017-10-02T17:41:00.276Z,14.20
2017-10-02T17:43:28.914Z,14.40
2017-10-02T17:45:57.339Z,14.40
2017-10-02T17:48:25.618Z,14.80
2017-10-02T17:50:55.043Z,15.50
2017-10-02T17:53:23.369Z,15.50
2017-10-02T17:55:51.834Z,15.90
2017-10-02T17:58:20.105Z,16.10
2017-10-02T18:00:48.589Z,16.40
2017-10-02T18:03:17.313Z,16.70
2017-10-02T18:05:45.951Z,16.70
2017-10-02T18:08:14.248Z,16.80
2017-10-02T18:10:42.533Z,16.70
2017-10-02T18:13:10.915Z,16.80
2017-10-02T18:15:39.193Z,16.80
2017-10-02T18:18:07.606Z,16.80
2017-10-02T18:20:36.257Z,17.00
2017-10-02T18:23:04.512Z,16.90
2017-10-02T18:25:32.743Z,17.10
2017-10-02T18:28:01.035Z,17.20
2017-10-02T18:30:29.298Z,17.30
2017-10-02T18:32:57.587Z,17.40
2017-10-02T18:35:26.038Z,17.40
2017-10-02T18:37:54.277Z,17.40
2017-10-02T18:40:22.546Z,17.40
2017-10-02T18:42:51.284Z,17.10
2017-10-02T18:45:19.660Z,16.90
2017-10-02T18:47:48.050Z,17.00
2017-10-02T18:50:16.276Z,17.00
2017-10-02T18:52:44.549Z,17.00
2017-10-02T18:55:14.028Z,17.00
2017-10-02T18:57:42.435Z,17.10
2017-10-02T19:00:10.806Z,17.00
2017-10-02T19:02:39.100Z,16.70
2017-10-02T19:05:07.430Z,16.70
2017-10-02T19:07:35.682Z,16.80
2017-10-02T19:10:04.061Z,17.00
2017-10-02T19:12:32.409Z,17.10
2017-10-02T19:15:00.640Z,17.10
2017-10-02T19:17:29.821Z,16.90
2017-10-02T19:19:58.066Z,17.00
2017-10-02T19:22:26.442Z,16.90
2017-10-02T19:24:55.249Z,17.00
2017-10-02T19:27:23.515Z,17.00
2017-10-02T19:29:52.226Z,17.00
2017-10-02T19:32:20.672Z,17.00
2017-10-02T19:34:48.909Z,17.00
2017-10-02T19:37:18.033Z,17.00
2017-10-02T19:39:46.752Z,16.80
2017-10-02T19:42:15.384Z,16.70
2017-10-02T19:44:43.627Z,16.70
2017-10-02T19:47:12.005Z,16.50
2017-10-02T19:49:40.338Z,16.30
2017-10-02T19:52:08.635Z,16.30
2017-10-02T19:54:37.427Z,16.30
2017-10-02T19:57:05.843Z,16.30
2017-10-02T19:59:34.226Z,16.30
2017-10-02T20:02:02.580Z,16.50
2017-10-02T20:04:30.877Z,16.80
2017-10-02T20:06:59.443Z,17.00
2017-10-02T20:09:27.677Z,17.30
2017-10-02T20:11:55.947Z,17.40
2017-10-02T20:14:24.624Z,17.10
2017-10-02T20:16:52.900Z,17.10
2017-10-02T20:19:21.145Z,16.80
2017-10-02T20:21:50.041Z,16.80
2017-10-02T20:24:19.072Z,16.60
2017-10-02T20:26:48.663Z,16.60
2017-10-02T20:29:17.364Z,16.90
2017-10-02T20:31:45.673Z,16.90
2017-10-02T20:34:13.948Z,17.10
2017-10-02T20:36:42.491Z,17.10
2017-10-02T20:39:11.519Z,17.20
2017-10-02T20:41:40.151Z,17.10
2017-10-02T20:44:08.421Z,17.10
2017-10-02T20:46:36.707Z,17.10
2017-10-02T20:49:05.441Z,17.20
2017-10-02T20:51:33.730Z,17.30
2017-10-02T20:54:02.085Z,17.30
2017-10-02T20:56:30.444Z,17.10
2017-10-02T20:58:58.757Z,16.90
2017-10-02T21:01:27.086Z,17.00
2017-10-02T21:03:55.350Z,17.10
2017-10-02T21:06:23.636Z,17.20
2017-10-02T21:08:51.946Z,17.10
2017-10-02T21:11:20.175Z,17.00
2017-10-02T21:13:48.518Z,16.70
2017-10-02T21:16:16.799Z,16.40
2017-10-02T21:18:45.534Z,16.30
2017-10-02T21:21:13.799Z,16.30
2017-10-02T21:23:42.336Z,16.20
2017-10-02T21:26:10.636Z,15.90
2017-10-02T21:28:39.027Z,15.90
2017-10-02T21:31:07.286Z,16.10
2017-10-02T21:33:35.561Z,16.10
2017-10-02T21:36:03.846Z,16.20
2017-10-02T21:38:32.112Z,16.10
2017-10-02T21:41:00.371Z,15.70
2017-10-02T21:43:28.689Z,15.50
2017-10-02T21:45:57.030Z,15.70
2017-10-02T21:48:25.333Z,15.80
2017-10-02T21:50:53.605Z,15.80
2017-10-02T21:53:21.849Z,15.90
2017-10-02T21:55:50.171Z,16.00
2017-10-02T21:58:18.469Z,15.80
2017-10-02T22:00:47.390Z,15.90
2017-10-02T22:03:15.749Z,15.80
2017-10-02T22:05:44.467Z,15.70
2017-10-02T22:08:12.741Z,15.70
2017-10-02T22:10:41.801Z,15.70
2017-10-02T22:13:10.044Z,16.00
2017-10-02T22:15:38.357Z,16.10
2017-10-02T22:18:07.033Z,16.20
2017-10-02T22:20:35.517Z,16.20
2017-10-02T22:23:03.777Z,16.10
2017-10-02T22:25:32.113Z,15.90
2017-10-02T22:28:00.356Z,15.80
2017-10-02T22:30:28.964Z,15.80
2017-10-02T22:32:57.652Z,15.80
2017-10-02T22:35:26.110Z,15.70
2017-10-02T22:37:54.811Z,15.80
2017-10-02T22:40:23.636Z,15.80
2017-10-02T22:42:51.888Z,15.60
2017-10-02T22:45:20.525Z,15.60
2017-10-02T22:47:49.269Z,15.70
2017-10-02T22:50:17.546Z,15.70
2017-10-02T22:52:45.825Z,15.60
2017-10-02T22:55:14.166Z,15.60
2017-10-02T22:57:42.978Z,15.60
2017-10-02T23:00:11.241Z,15.60
2017-10-02T23:02:39.545Z,15.80
2017-10-02T23:05:07.820Z,15.70
2017-10-02T23:07:36.080Z,15.60
2017-10-02T23:10:04.370Z,15.40
2017-10-02T23:12:32.693Z,15.50
2017-10-02T23:15:00.941Z,15.50
2017-10-02T23:17:29.254Z,15.40
2017-10-02T23:19:57.567Z,15.40
2017-10-02T23:22:26.623Z,15.60
2017-10-02T23:24:54.896Z,15.80
2017-10-02T23:27:23.193Z,16.00
2017-10-02T23:29:51.428Z,16.20
2017-10-02T23:32:19.732Z,16.40
2017-10-02T23:34:48.544Z,16.50
2017-10-02T23:37:16.796Z,16.60
2017-10-02T23:39:45.138Z,16.70
2017-10-02T23:42:13.371Z,16.80
2017-10-02T23:44:41.631Z,16.90
2017-10-02T23:47:09.941Z,16.80
2017-10-02T23:49:38.184Z,16.90
2017-10-02T23:52:06.871Z,17.20
2017-10-02T23:54:35.198Z,17.20
2017-10-02T23:57:03.512Z,17.30
2017-10-02T23:59:31.760Z,17.40
